Time;durP1;ratioP1;P1;durP2;ratioP2;P2;SDS_P1;SDS_P2;PMS_P1;PMS_P2;Temp;Humidity;BMP_temperature;BMP_pressure;BME280_temperature;BME280_humidity;BME280_pressure;Samples;Min_cycle;Max_cycle;Signal;HPM_P1;HPM_P2
2022/02/10 00:03:46;;;;;;;12.80;9.20;;;;;;;6.81;81.16;100400.02;106162;1270;111274;-73
2022/02/10 00:15:15;;;;;;;12.00;9.30;;;;;;;6.81;81.40;100410.73;106234;1270;96480;-73
2022/02/10 00:17:58;;;;;;;15.60;10.10;;;;;;;6.81;81.34;100411.60;106129;1270;137427;-73
2022/02/10 00:20:36;;;;;;;17.40;11.10;;;;;;;6.80;81.55;100410.05;106350;1270;108283;-74
2022/02/10 00:23:26;;;;;;;19.10;10.10;;;;;;;6.78;81.49;100406.80;106207;1271;137876;-74
2022/02/10 00:34:31;;;;;;;14.60;9.40;;;;;;;6.70;81.67;100410.03;106321;1270;108812;-73
2022/02/10 00:37:12;;;;;;;14.10;9.60;;;;;;;6.71;81.80;100410.20;106298;1270;139811;-74
2022/02/10 00:42:33;;;;;;;14.60;10.20;;;;;;;6.75;81.86;100412.38;106091;1270;138180;-73
2022/02/10 00:45:06;;;;;;;15.50;11.00;;;;;;;6.76;81.72;100416.15;106285;1270;108788;-73
2022/02/10 00:47:51;;;;;;;13.10;10.50;;;;;;;6.76;81.69;100414.60;106085;1270;137933;-73
2022/02/10 00:50:26;;;;;;;15.40;10.10;;;;;;;6.77;81.87;100416.66;106082;1270;107654;-73
2022/02/10 00:53:04;;;;;;;14.00;9.80;;;;;;;6.74;81.73;100410.14;106023;1271;138490;-73
2022/02/10 00:55:38;;;;;;;15.90;9.80;;;;;;;6.72;81.68;100410.17;106164;1270;96491;-73
2022/02/10 00:58:14;;;;;;;14.60;10.90;;;;;;;6.72;81.99;100408.62;106210;1270;110072;-71
2022/02/10 01:12:30;;;;;;;14.80;10.00;;;;;;;6.77;81.97;100411.30;105976;1270;137956;-73
2022/02/10 01:32:00;;;;;;;15.90;10.40;;;;;;;6.72;82.31;100408.45;105991;1272;108755;-72
2022/02/10 01:34:35;;;;;;;13.70;9.70;;;;;;;6.71;82.39;100409.84;105996;1270;97907;-73
2022/02/10 01:37:08;;;;;;;15.80;9.40;;;;;;;6.70;82.38;100413.83;105976;1271;138183;-73
2022/02/10 01:39:45;;;;;;;13.80;10.60;;;;;;;6.70;82.39;100407.63;106056;1270;112736;-72
2022/02/10 02:04:56;;;;;;;14.20;10.90;;;;;;;6.67;82.83;100419.23;105907;1276;138750;-72
2022/02/10 02:07:30;;;;;;;17.70;11.00;;;;;;;6.69;82.93;100423.88;105994;1276;111348;-73
2022/02/10 02:10:03;;;;;;;13.50;10.90;;;;;;;6.69;82.79;100415.75;106070;1276;108925;-73
2022/02/10 02:12:35;;;;;;;15.10;10.60;;;;;;;6.68;82.95;100413.70;107372;1275;138405;-73
2022/02/10 02:15:09;;;;;;;13.90;11.40;;;;;;;6.68;83.01;100415.78;107493;1275;95033;-73
2022/02/10 02:17:41;;;;;;;12.90;10.70;;;;;;;6.69;83.07;100418.52;106764;1276;138529;-73
2022/02/10 02:20:14;;;;;;;14.20;11.10;;;;;;;6.70;82.96;100424.04;106009;1274;110631;-73
2022/02/10 02:22:46;;;;;;;14.30;10.80;;;;;;;6.71;83.06;100431.11;106156;1276;142561;-72
2022/02/10 02:25:18;;;;;;;17.10;11.70;;;;;;;6.73;83.04;100424.16;106037;1271;108331;-73
2022/02/10 02:27:54;;;;;;;19.70;12.20;;;;;;;6.73;82.92;100421.57;106317;1270;96468;-73
2022/02/10 02:30:33;;;;;;;17.10;12.50;;;;;;;6.71;82.81;100418.50;107771;1270;138092;-73
2022/02/10 02:39:22;;;;;;;16.70;11.30;;;;;;;6.65;83.06;100411.48;107606;1273;109069;-74
2022/02/10 03:07:34;;;;;;;17.80;12.90;;;;;;;6.75;83.16;100415.48;107498;1273;137735;-74
2022/02/10 03:10:31;;;;;;;16.00;12.70;;;;;;;6.74;83.15;100413.25;107452;1271;96487;-74
2022/02/10 03:13:03;;;;;;;16.30;12.10;;;;;;;6.71;83.24;100404.48;106247;1270;137654;-73
2022/02/10 03:15:43;;;;;;;15.10;12.10;;;;;;;6.70;83.25;100405.89;106309;1270;111135;-73
2022/02/10 03:18:26;;;;;;;15.50;11.80;;;;;;;6.67;83.34;100403.86;106160;1270;138656;-73
2022/02/10 03:21:34;;;;;;;18.50;11.80;;;;;;;6.68;83.42;100404.70;106028;1271;387213;-73
2022/02/10 04:06:55;;;;;;;17.40;12.20;;;;;;;6.67;84.23;100395.90;106023;1274;139704;-73
2022/02/10 04:15:31;;;;;;;18.00;12.40;;;;;;;6.69;84.21;100396.91;106226;1271;109028;-73
2022/02/10 04:21:09;;;;;;;18.70;13.40;;;;;;;6.70;84.32;100406.92;106210;1270;96511;-73
2022/02/10 04:26:40;;;;;;;21.10;14.40;;;;;;;6.64;84.32;100410.45;106065;1274;111188;-73
2022/02/10 04:55:36;;;;;;;18.80;13.20;;;;;;;6.59;84.77;100412.59;105903;1275;138286;-72
2022/02/10 04:58:24;;;;;;;17.70;12.40;;;;;;;6.59;84.89;100416.90;106036;1274;108544;-72
2022/02/10 05:01:10;;;;;;;18.90;13.20;;;;;;;6.60;84.95;100420.34;105901;1275;139105;-72
2022/02/10 05:15:45;;;;;;;19.60;13.30;;;;;;;6.60;84.93;100422.92;105222;1284;108072;-73
2022/02/10 05:18:39;;;;;;;22.40;13.40;;;;;;;6.57;84.75;100419.35;106475;1284;138652;-73
2022/02/10 05:21:24;;;;;;;18.50;13.50;;;;;;;6.56;84.84;100415.56;106650;1284;94964;-73
2022/02/10 05:24:26;;;;;;;18.10;12.80;;;;;;;6.55;84.75;100419.05;106466;1284;138495;-73
2022/02/10 05:32:55;;;;;;;17.90;12.90;;;;;;;6.61;84.84;100418.60;105368;1284;96501;-73
2022/02/10 05:35:30;;;;;;;21.30;12.70;;;;;;;6.63;84.73;100418.40;105280;1284;96545;-74
2022/02/10 05:38:07;;;;;;;16.50;12.50;;;;;;;6.69;84.95;100420.23;105328;1284;138272;-72
2022/02/10 05:43:45;;;;;;;18.80;12.70;;;;;;;6.79;84.84;100424.23;104793;1287;140249;-72
2022/02/10 05:46:27;;;;;;;18.20;12.70;;;;;;;6.84;84.77;100428.68;105176;1287;96616;-74
2022/02/10 05:49:25;;;;;;;18.30;13.60;;;;;;;6.85;84.63;100427.11;105051;1287;137588;-74
2022/02/10 05:54:54;;;;;;;22.30;14.10;;;;;;;6.81;84.56;100423.70;105835;1274;138435;-74
2022/02/10 05:57:44;;;;;;;19.40;13.70;;;;;;;6.81;84.58;100426.10;107513;1275;108224;-72
2022/02/10 06:48:53;;;;;;;21.00;14.60;;;;;;;6.98;83.69;100414.97;106439;1270;137627;-73
2022/02/10 06:51:34;;;;;;;21.40;13.80;;;;;;;6.95;83.69;100411.04;107754;1271;107724;-73
2022/02/10 06:54:16;;;;;;;21.60;14.40;;;;;;;6.94;83.64;100405.02;107181;1271;107637;-73
2022/02/10 07:06:05;;;;;;;21.60;14.20;;;;;;;6.94;83.91;100394.81;106735;1281;108907;-73
2022/02/10 07:49:25;;;;;;;27.00;16.20;;;;;;;7.06;84.07;100424.91;106809;1279;138544;-74
2022/02/10 07:55:07;;;;;;;25.40;14.30;;;;;;;7.01;83.97;100428.95;105687;1274;139925;-73
2022/02/10 07:57:46;;;;;;;22.40;14.40;;;;;;;7.01;84.11;100428.43;105942;1274;96484;-73
2022/02/10 08:57:36;;;;;;;27.20;17.60;;;;;;;7.04;85.27;100398.65;105751;1276;138248;-73
2022/02/10 09:00:38;;;;;;;24.30;16.70;;;;;;;7.05;85.28;100397.08;105986;1271;107188;-73
2022/02/10 09:03:22;;;;;;;28.40;17.60;;;;;;;7.08;85.16;100397.54;107637;1270;138704;-75
2022/02/10 09:06:02;;;;;;;24.10;16.40;;;;;;;7.08;85.22;100401.52;107822;1271;94799;-74
2022/02/10 09:12:04;;;;;;;28.20;17.80;;;;;;;7.09;85.31;100394.93;107763;1271;111557;-74
2022/02/10 10:00:19;;;;;;;30.90;17.40;;;;;;;7.53;84.08;100357.34;105724;1274;108859;-74
2022/02/10 10:03:07;;;;;;;26.40;17.60;;;;;;;7.54;83.96;100353.36;106526;1276;138506;-74
2022/02/10 10:05:53;;;;;;;24.30;17.20;;;;;;;7.57;84.05;100353.15;105799;1276;96410;-74
2022/02/10 10:08:45;;;;;;;28.50;16.50;;;;;;;7.60;83.92;100347.20;105763;1276;140406;-74
2022/02/10 10:11:57;;;;;;;25.50;18.10;;;;;;;7.63;83.80;100346.79;105963;1276;108921;-74
2022/02/10 10:14:35;;;;;;;23.80;17.20;;;;;;;7.69;83.72;100338.72;105838;1276;138651;-73
2022/02/10 10:17:23;;;;;;;23.70;17.40;;;;;;;7.77;83.62;100331.48;106614;1274;96624;-73
2022/02/10 10:20:07;;;;;;;25.40;18.00;;;;;;;7.86;83.53;100327.13;107275;1276;142309;-73
2022/02/10 10:23:02;;;;;;;24.90;17.50;;;;;;;7.94;83.14;100324.58;107373;1276;110238;-73
2022/02/10 10:26:05;;;;;;;29.60;17.90;;;;;;;7.92;82.81;100324.62;107219;1276;139359;-72
2022/02/10 10:51:58;;;;;;;20.90;15.10;;;;;;;8.27;81.52;100312.63;105201;1279;138340;-73
2022/02/10 10:54:36;;;;;;;23.20;16.20;;;;;;;8.28;81.14;100306.52;105485;1279;107999;-73
2022/02/10 10:57:15;;;;;;;23.40;16.30;;;;;;;8.29;81.23;100302.36;105185;1281;137732;-73
2022/02/10 11:00:14;;;;;;;23.70;16.20;;;;;;;8.31;81.18;100302.98;105501;1279;96924;-74
2022/02/10 11:38:26;;;;;;;16.70;11.80;;;;;;;8.12;80.55;100236.55;105836;1276;107875;-73
2022/02/10 11:44:22;;;;;;;15.70;11.60;;;;;;;8.25;80.02;100235.90;105647;1274;96497;-73
2022/02/10 12:00:05;;;;;;;16.60;11.90;;;;;;;8.71;79.28;100210.05;105512;1280;138660;-73
2022/02/10 14:13:30;;;;;;;18.50;10.10;;;;;;;8.23;80.53;100062.92;105036;1285;96703;-75
2022/02/10 14:16:14;;;;;;;14.70;9.20;;;;;;;8.15;80.53;100063.14;104971;1281;139945;-74
2022/02/10 14:18:54;;;;;;;14.90;9.20;;;;;;;8.09;80.59;100058.59;105641;1279;107931;-74
2022/02/10 14:21:32;;;;;;;12.00;8.20;;;;;;;8.03;80.60;100047.48;106037;1275;107992;-75
2022/02/10 14:26:54;;;;;;;12.50;7.60;;;;;;;7.97;80.58;100033.45;105782;1275;96663;-73
2022/02/10 14:29:26;;;;;;;12.70;7.20;;;;;;;7.94;80.44;100037.16;105655;1277;138457;-73
2022/02/10 14:31:58;;;;;;;12.60;7.40;;;;;;;7.90;80.36;100035.52;105936;1276;108508;-74
2022/02/10 14:34:30;;;;;;;15.10;9.20;;;;;;;7.85;80.30;100033.04;105785;1275;138659;-73
2022/02/10 14:37:19;;;;;;;13.50;8.20;;;;;;;7.89;80.53;100029.14;105616;1277;96628;-73
2022/02/10 14:40:07;;;;;;;14.30;7.90;;;;;;;7.86;80.26;100019.35;105694;1275;137536;-72
2022/02/10 14:43:08;;;;;;;11.40;7.60;;;;;;;7.83;80.29;100016.48;105788;1275;111667;-74
2022/02/10 15:17:37;;;;;;;15.60;11.30;;;;;;;7.57;81.14;99972.48;105458;1279;138181;-73
2022/02/10 16:11:50;;;;;;;13.80;9.60;;;;;;;7.26;77.97;99933.95;105805;1277;139262;-73
2022/02/10 16:14:50;;;;;;;16.90;9.90;;;;;;;7.25;77.96;99923.06;105801;1276;106640;-72
2022/02/10 16:17:24;;;;;;;17.40;10.20;;;;;;;7.26;78.31;99920.64;105587;1276;138896;-74
2022/02/10 16:20:05;;;;;;;18.30;10.70;;;;;;;7.27;78.31;99918.70;107289;1276;94834;-72
2022/02/10 16:22:47;;;;;;;16.80;10.90;;;;;;;7.26;78.17;99920.98;105635;1273;137835;-74
2022/02/10 16:25:20;;;;;;;17.30;11.30;;;;;;;7.24;78.21;99923.61;106033;1272;109092;-74
2022/02/10 16:28:00;;;;;;;18.10;11.90;;;;;;;7.23;78.30;99920.38;106111;1271;108849;-74
2022/02/10 16:30:32;;;;;;;16.50;11.90;;;;;;;7.21;78.27;99918.52;106020;1271;138006;-73
2022/02/10 16:33:09;;;;;;;19.00;11.50;;;;;;;7.18;78.10;99915.11;106120;1271;96596;-74
2022/02/10 16:35:44;;;;;;;;;;;;;;;7.16;78.04;99917.91;105855;1272;138896;-73
2022/02/10 16:38:21;;;;;;;18.60;11.80;;;;;;;7.12;77.87;99918.02;106242;1272;108793;-74
2022/02/10 16:40:57;;;;;;;;;;;;;;;7.12;77.91;99916.99;106061;1270;138160;-74
2022/02/10 16:43:33;;;;;;;18.30;12.20;;;;;;;7.12;77.60;99915.09;106088;1271;95015;-74
2022/02/10 16:46:11;;;;;;;23.30;14.10;;;;;;;7.10;77.74;99915.83;106177;1271;96933;-75
2022/02/10 16:48:48;;;;;;;20.20;13.10;;;;;;;7.11;77.68;99912.87;106049;1270;138187;-74
2022/02/10 16:51:26;;;;;;;21.50;14.90;;;;;;;7.09;77.65;99912.04;106205;1271;108876;-75
2022/02/10 16:54:09;;;;;;;21.00;13.70;;;;;;;7.09;77.43;99908.77;107623;1271;138375;-73
2022/02/10 16:56:58;;;;;;;20.50;12.90;;;;;;;7.07;77.18;99906.57;107718;1271;95418;-74
2022/02/10 16:59:47;;;;;;;21.30;12.10;;;;;;;7.06;77.25;99900.02;107642;1271;138150;-72
2022/02/10 17:05:36;;;;;;;18.70;13.10;;;;;;;7.09;76.63;99885.95;107612;1272;137974;-73
2022/02/10 17:14:20;;;;;;;19.20;12.80;;;;;;;7.11;76.48;99891.25;107547;1274;95136;-73
2022/02/10 17:17:25;;;;;;;26.10;13.10;;;;;;;7.10;76.53;99887.65;107439;1273;138533;-73
2022/02/10 17:20:24;;;;;;;20.90;12.90;;;;;;;7.11;76.46;99886.23;107606;1273;108840;-73
2022/02/10 17:25:49;;;;;;;19.60;12.90;;;;;;;7.16;76.27;99884.38;107585;1273;94648;-73
2022/02/10 17:28:21;;;;;;;21.50;14.40;;;;;;;7.16;75.98;99878.84;107643;1273;94797;-74
2022/02/10 17:34:04;;;;;;;20.10;14.50;;;;;;;7.14;76.08;99870.77;107177;1273;108088;-72
2022/02/10 17:36:43;;;;;;;21.00;14.10;;;;;;;7.13;76.00;99863.36;105956;1273;137682;-73
2022/02/10 17:42:33;;;;;;;18.30;12.70;;;;;;;7.11;75.82;99854.08;105911;1274;138607;-73
2022/02/10 17:45:24;;;;;;;18.70;12.70;;;;;;;7.10;76.10;99848.75;107615;1273;109967;-73
2022/02/10 17:53:38;;;;;;;22.10;14.80;;;;;;;7.09;75.88;99837.53;107679;1270;138060;-73
2022/02/10 17:56:10;;;;;;;;;;;;;;;7.06;75.63;99831.91;107919;1270;94910;-73
2022/02/10 17:58:42;;;;;;;22.30;15.80;;;;;;;7.04;75.63;99834.91;107715;1270;126220;-73
2022/02/10 18:01:21;;;;;;;24.30;15.80;;;;;;;7.01;75.69;99826.52;107754;1270;108893;-74
2022/02/10 18:03:52;;;;;;;23.00;14.70;;;;;;;6.97;75.67;99821.38;107780;1271;109263;-73
2022/02/10 18:06:28;;;;;;;20.50;13.70;;;;;;;6.94;75.67;99813.19;107593;1270;138951;-73
2022/02/10 18:09:41;;;;;;;22.50;15.00;;;;;;;6.93;75.71;99815.27;107780;1271;94671;-73
2022/02/10 18:15:10;;;;;;;21.00;13.90;;;;;;;6.94;75.64;99808.16;106185;1270;108734;-72
2022/02/10 18:17:49;;;;;;;24.90;15.60;;;;;;;6.94;75.49;99801.59;107630;1271;137629;-73
2022/02/10 18:20:26;;;;;;;24.20;14.60;;;;;;;6.94;75.52;99799.71;107755;1271;94778;-73
2022/02/10 18:23:07;;;;;;;;;;;;;;;6.92;75.66;99793.69;107709;1270;230507;-72
2022/02/10 18:28:56;;;;;;;21.60;14.40;;;;;;;6.89;75.47;99799.30;107670;1270;139408;-72
2022/02/10 19:03:31;;;;;;;20.50;14.00;;;;;;;7.01;75.43;99758.58;106102;1271;96472;-73
2022/02/10 19:08:45;;;;;;;18.20;13.00;;;;;;;7.04;75.17;99764.53;106135;1271;110227;-74
2022/02/10 19:11:21;;;;;;;21.70;13.20;;;;;;;7.09;75.14;99765.45;106153;1271;137989;-73
2022/02/10 19:13:55;;;;;;;19.90;12.10;;;;;;;7.14;74.98;99761.67;106322;1270;108398;-72
2022/02/10 19:16:27;;;;;;;19.40;12.20;;;;;;;7.20;74.66;99756.01;106123;1270;96564;-73
2022/02/10 19:18:59;;;;;;;18.50;11.60;;;;;;;7.26;74.69;99753.43;106142;1270;138240;-73
2022/02/10 19:21:32;;;;;;;16.50;11.30;;;;;;;7.33;74.71;99757.73;106436;1270;111105;-73
2022/02/10 19:24:05;;;;;;;21.40;13.30;;;;;;;7.38;74.76;99755.16;106230;1271;138343;-72
2022/02/10 19:26:38;;;;;;;23.40;13.30;;;;;;;7.45;74.76;99755.48;107855;1270;107640;-73
2022/02/10 19:29:10;;;;;;;21.60;13.40;;;;;;;7.53;74.66;99750.27;107739;1269;139169;-73
2022/02/10 19:31:42;;;;;;;22.10;12.90;;;;;;;7.59;74.39;99757.02;107850;1270;96709;-73
2022/02/10 19:34:14;;;;;;;22.30;13.20;;;;;;;7.65;74.43;99760.66;107884;1271;111463;-73
2022/02/10 19:37:06;;;;;;;18.30;12.20;;;;;;;7.71;74.07;99755.83;106456;1271;137856;-73
2022/02/10 19:39:42;;;;;;;21.70;12.10;;;;;;;7.75;73.86;99760.56;106309;1271;108419;-73
2022/02/10 19:42:14;;;;;;;17.70;11.40;;;;;;;7.80;73.92;99771.30;106180;1270;138416;-73
2022/02/10 19:44:46;;;;;;;19.40;11.60;;;;;;;7.86;73.90;99772.49;106365;1271;96465;-72
2022/02/10 19:47:18;;;;;;;17.90;11.50;;;;;;;7.93;73.68;99776.84;106247;1271;138280;-73
2022/02/10 19:49:50;;;;;;;18.50;12.00;;;;;;;7.98;73.56;99782.38;106406;1270;109070;-73
2022/02/10 19:52:23;;;;;;;20.80;12.30;;;;;;;8.04;73.39;99783.23;106349;1270;109148;-74
2022/02/10 19:54:57;;;;;;;18.80;12.30;;;;;;;8.07;73.56;99788.52;106135;1270;139188;-73
2022/02/10 19:57:31;;;;;;;23.30;13.70;;;;;;;8.08;73.50;99788.33;106318;1270;96478;-72
2022/02/10 20:00:07;;;;;;;22.50;12.80;;;;;;;8.08;73.64;99792.14;106101;1270;137671;-73
2022/02/10 20:02:40;;;;;;;19.20;12.50;;;;;;;8.05;73.68;99795.67;106914;1270;107796;-72
2022/02/10 20:05:12;;;;;;;21.60;12.40;;;;;;;8.04;73.88;99798.48;107739;1270;139868;-72
2022/02/10 20:07:48;;;;;;;23.50;12.60;;;;;;;8.03;73.92;99799.38;107365;1270;96619;-73
2022/02/10 20:10:21;;;;;;;20.30;12.40;;;;;;;8.03;74.00;99797.64;106338;1269;96377;-73
2022/02/10 20:12:54;;;;;;;23.50;12.70;;;;;;;8.03;74.06;99799.38;107653;1270;137786;-72
2022/02/10 20:15:33;;;;;;;22.50;12.60;;;;;;;8.04;74.24;99798.30;107895;1270;105876;-73
2022/02/10 20:18:06;;;;;;;21.60;13.50;;;;;;;8.03;74.32;99800.77;107714;1270;137947;-74
2022/02/10 20:20:38;;;;;;;22.20;13.70;;;;;;;8.01;74.26;99797.04;106823;1271;96478;-74
2022/02/10 20:23:11;;;;;;;20.00;13.30;;;;;;;7.99;74.45;99797.26;106221;1271;137680;-72
2022/02/10 20:26:03;;;;;;;19.70;12.20;;;;;;;7.97;74.49;99799.73;106279;1270;110198;-72
2022/02/10 20:28:36;;;;;;;18.90;12.20;;;;;;;7.95;74.67;99807.75;106348;1270;107219;-72
2022/02/10 20:31:09;;;;;;;22.50;12.00;;;;;;;7.94;74.87;99818.19;106122;1270;138395;-73
2022/02/10 20:33:45;;;;;;;18.40;11.00;;;;;;;7.93;74.94;99817.34;106219;1270;96486;-73
2022/02/10 20:36:18;;;;;;;24.90;13.30;;;;;;;7.93;75.08;99821.17;106180;1270;138163;-74
2022/02/10 20:38:56;;;;;;;21.50;13.20;;;;;;;7.92;75.19;99822.73;106175;1271;111201;-73
2022/02/10 20:41:31;;;;;;;22.90;13.00;;;;;;;7.91;75.20;99826.05;106030;1271;138380;-74
2022/02/10 20:44:05;;;;;;;18.10;11.90;;;;;;;7.89;75.12;99824.18;106255;1270;108817;-73
2022/02/10 20:46:42;;;;;;;17.80;11.90;;;;;;;7.87;75.14;99834.96;106228;1270;96457;-74
2022/02/10 20:49:18;;;;;;;19.80;12.00;;;;;;;7.86;75.30;99836.05;106102;1271;137676;-74
2022/02/10 20:51:50;;;;;;;16.40;10.90;;;;;;;7.84;75.28;99839.04;106325;1270;111248;-73
2022/02/10 20:54:23;;;;;;;12.50;9.40;;;;;;;7.83;75.26;99835.44;106116;1270;140097;-73
2022/02/10 20:56:56;;;;;;;19.00;10.40;;;;;;;7.80;75.30;99832.06;106176;1270;107765;-73
2022/02/10 20:59:33;;;;;;;14.90;9.20;;;;;;;7.79;75.30;99841.96;106018;1271;140312;-73
2022/02/10 21:02:09;;;;;;;12.80;9.10;;;;;;;7.77;75.33;99840.96;106136;1270;96484;-72
2022/02/10 21:04:48;;;;;;;13.50;9.00;;;;;;;7.75;75.45;99840.66;106079;1271;110612;-73
2022/02/10 21:07:27;;;;;;;13.00;8.70;;;;;;;7.74;75.38;99842.80;106034;1271;137492;-75
2022/02/10 21:10:02;;;;;;;13.80;9.30;;;;;;;7.72;75.37;99848.02;106112;1271;109032;-74
2022/02/10 21:12:37;;;;;;;17.00;9.20;;;;;;;7.68;75.49;99848.63;106119;1270;138710;-73
2022/02/10 21:15:17;;;;;;;17.60;10.00;;;;;;;7.64;75.66;99855.86;106325;1271;96453;-74
2022/02/10 21:17:50;;;;;;;16.00;10.10;;;;;;;7.60;75.73;99865.14;106152;1270;138142;-74
2022/02/10 21:20:25;;;;;;;15.40;9.90;;;;;;;7.58;75.91;99871.08;106267;1270;108095;-74
2022/02/10 21:23:05;;;;;;;16.50;10.60;;;;;;;7.55;76.10;99872.35;106338;1271;107161;-74
2022/02/10 21:25:39;;;;;;;19.90;11.80;;;;;;;7.54;76.29;99871.67;106247;1271;138394;-73
2022/02/10 21:28:18;;;;;;;18.30;12.30;;;;;;;7.55;76.53;99870.64;106187;1271;96354;-73
2022/02/10 21:30:54;;;;;;;17.30;11.30;;;;;;;7.56;76.67;99869.75;106212;1271;138552;-75
2022/02/10 21:33:42;;;;;;;18.30;11.90;;;;;;;7.53;76.76;99867.20;106270;1271;107789;-74
2022/02/10 21:36:46;;;;;;;16.70;11.40;;;;;;;7.50;76.97;99870.73;106134;1270;138608;-73
2022/02/10 21:39:30;;;;;;;17.80;11.90;;;;;;;7.47;77.06;99877.41;106289;1270;96573;-73
2022/02/10 21:47:58;;;;;;;19.90;12.70;;;;;;;7.40;77.51;99887.96;106069;1271;138691;-73
2022/02/10 21:54:10;;;;;;;23.50;15.40;;;;;;;7.35;78.11;99881.15;106012;1271;139266;-71
2022/02/10 21:56:49;;;;;;;23.50;16.40;;;;;;;7.35;78.40;99882.19;107702;1271;94594;-73
2022/02/10 21:59:47;;;;;;;21.90;16.20;;;;;;;7.29;78.52;99876.45;107653;1271;138552;-71
2022/02/10 22:08:42;;;;;;;21.90;16.40;;;;;;;7.13;79.13;99892.75;107487;1271;139163;-72
2022/02/10 22:11:28;;;;;;;23.10;16.10;;;;;;;7.08;79.27;99895.98;107708;1271;94583;-73
2022/02/10 22:17:20;;;;;;;18.20;12.30;;;;;;;7.02;79.29;99905.83;107720;1271;107780;-73
2022/02/10 22:19:58;;;;;;;15.70;10.60;;;;;;;6.94;78.57;99913.42;106838;1271;139434;-72
2022/02/10 22:22:36;;;;;;;14.60;9.60;;;;;;;6.85;78.44;99911.92;105975;1271;96568;-72
2022/02/10 22:25:13;;;;;;;13.20;9.30;;;;;;;6.77;78.43;99910.16;107356;1271;138677;-73
2022/02/10 22:27:48;;;;;;;13.60;9.50;;;;;;;6.73;78.13;99907.00;107824;1271;109959;-72
2022/02/10 22:30:29;;;;;;;15.10;10.10;;;;;;;6.70;78.30;99911.37;107663;1271;137983;-72
2022/02/10 22:33:15;;;;;;;16.10;10.50;;;;;;;6.68;78.35;99915.06;107796;1270;108765;-73
2022/02/10 22:35:49;;;;;;;17.80;10.80;;;;;;;6.68;78.39;99915.23;106535;1271;96559;-73
2022/02/10 22:38:22;;;;;;;16.20;10.40;;;;;;;6.64;78.29;99917.38;105986;1271;137404;-74
2022/02/10 22:41:02;;;;;;;12.90;9.60;;;;;;;6.57;78.14;99916.30;106166;1271;111028;-74
2022/02/10 22:43:34;;;;;;;13.00;9.00;;;;;;;6.52;78.28;99923.69;105979;1271;138657;-74
2022/02/10 22:46:07;;;;;;;11.10;7.80;;;;;;;6.46;78.12;99923.98;106089;1271;108824;-74
2022/02/10 22:48:43;;;;;;;9.80;7.20;;;;;;;6.37;77.89;99930.52;105983;1271;138271;-73
2022/02/10 22:51:16;;;;;;;8.50;5.80;;;;;;;6.30;77.47;99929.13;106135;1271;96486;-74
2022/02/10 22:53:49;;;;;;;8.30;5.90;;;;;;;6.22;77.20;99939.30;106095;1271;109122;-74
2022/02/10 22:56:23;;;;;;;9.50;6.10;;;;;;;6.16;77.24;99946.33;105769;1271;137653;-74
2022/02/10 22:58:57;;;;;;;10.10;6.40;;;;;;;6.09;77.30;99948.35;106256;1271;107977;-74
2022/02/10 23:01:30;;;;;;;7.70;5.10;;;;;;;6.02;77.40;99956.77;106212;1271;96510;-74
2022/02/10 23:04:02;;;;;;;6.70;5.30;;;;;;;5.93;77.31;99962.09;106245;1271;137531;-74
2022/02/10 23:06:35;;;;;;;6.30;5.20;;;;;;;5.86;77.40;99968.05;106268;1271;111188;-73
2022/02/10 23:09:27;;;;;;;8.20;5.20;;;;;;;5.81;77.55;99975.91;106157;1269;138204;-74
2022/02/10 23:12:00;;;;;;;8.40;5.30;;;;;;;5.79;77.81;99979.40;106252;1271;108623;-73
2022/02/10 23:14:32;;;;;;;7.80;6.10;;;;;;;5.76;77.82;99983.43;106137;1271;137419;-73
2022/02/10 23:17:04;;;;;;;8.10;6.40;;;;;;;5.72;77.78;99987.43;107412;1270;94883;-72
2022/02/10 23:19:39;;;;;;;8.80;6.50;;;;;;;5.68;78.00;99993.55;107884;1270;111134;-73
2022/02/10 23:22:11;;;;;;;10.00;7.00;;;;;;;5.63;78.08;99997.44;106728;1270;138387;-72
2022/02/10 23:24:43;;;;;;;8.90;6.60;;;;;;;5.57;78.02;100005.81;107110;1270;107767;-73
2022/02/10 23:27:15;;;;;;;10.80;6.70;;;;;;;5.52;78.24;100009.33;107739;1269;138449;-73
2022/02/10 23:29:48;;;;;;;8.10;6.50;;;;;;;5.50;78.40;100011.44;107847;1270;94741;-73
2022/02/10 23:32:20;;;;;;;8.60;6.30;;;;;;;5.46;78.39;100012.34;106357;1271;138314;-73
2022/02/10 23:34:52;;;;;;;8.70;6.80;;;;;;;5.48;78.50;100011.98;107275;1270;108915;-74
2022/02/10 23:37:28;;;;;;;10.10;7.10;;;;;;;5.49;78.55;100020.26;107825;1270;107509;-74
2022/02/10 23:40:00;;;;;;;10.20;7.30;;;;;;;5.48;78.41;100028.19;107801;1270;137718;-73
2022/02/10 23:42:33;;;;;;;11.70;7.90;;;;;;;5.46;78.49;100035.80;107927;1270;94584;-72
2022/02/10 23:45:14;;;;;;;10.90;7.90;;;;;;;5.44;78.70;100037.55;107798;1270;137555;-72
2022/02/10 23:47:48;;;;;;;8.90;6.80;;;;;;;5.45;78.95;100037.89;107846;1269;105632;-72
2022/02/10 23:50:25;;;;;;;8.70;6.60;;;;;;;5.44;78.81;100042.73;106951;1270;138233;-73
2022/02/10 23:52:57;;;;;;;8.10;5.50;;;;;;;5.41;78.76;100045.37;107799;1270;94519;-73
2022/02/10 23:55:33;;;;;;;8.30;5.90;;;;;;;5.39;78.57;100049.70;107705;1270;94617;-73
2022/02/10 23:58:17;;;;;;;8.30;6.10;;;;;;;5.40;78.74;100050.89;106207;1270;137875;-72
